sensor_id;sensor_type;location;lat;lon;timestamp;P1;durP1;ratioP1;P2;durP2;ratioP2
76729;SDS011;65653;53.106;18.046;2023-07-29T00:02:00;5.70;;;4.90;;
76729;SDS011;65653;53.106;18.046;2023-07-29T00:04:27;6.80;;;4.80;;
76729;SDS011;65653;53.106;18.046;2023-07-29T00:06:53;5.40;;;4.70;;
76729;SDS011;65653;53.106;18.046;2023-07-29T00:09:20;5.80;;;4.70;;
76729;SDS011;65653;53.106;18.046;2023-07-29T00:11:47;6.80;;;4.80;;
76729;SDS011;65653;53.106;18.046;2023-07-29T00:14:13;8.70;;;6.90;;
76729;SDS011;65653;53.106;18.046;2023-07-29T00:16:40;16.10;;;11.30;;
76729;SDS011;65653;53.106;18.046;2023-07-29T00:19:08;10.30;;;8.20;;
76729;SDS011;65653;53.106;18.046;2023-07-29T00:21:34;8.40;;;6.70;;
76729;SDS011;65653;53.106;18.046;2023-07-29T00:24:01;7.40;;;6.60;;
76729;SDS011;65653;53.106;18.046;2023-07-29T00:26:29;6.90;;;5.80;;
76729;SDS011;65653;53.106;18.046;2023-07-29T00:28:56;7.50;;;6.60;;
76729;SDS011;65653;53.106;18.046;2023-07-29T00:31:22;11.40;;;8.40;;
76729;SDS011;65653;53.106;18.046;2023-07-29T00:33:49;8.10;;;6.60;;
76729;SDS011;65653;53.106;18.046;2023-07-29T00:36:15;8.50;;;6.80;;
76729;SDS011;65653;53.106;18.046;2023-07-29T00:38:42;9.70;;;6.90;;
76729;SDS011;65653;53.106;18.046;2023-07-29T00:41:08;9.30;;;7.00;;
76729;SDS011;65653;53.106;18.046;2023-07-29T00:43:40;9.50;;;7.40;;
76729;SDS011;65653;53.106;18.046;2023-07-29T00:46:27;8.20;;;6.90;;
76729;SDS011;65653;53.106;18.046;2023-07-29T00:49:04;8.70;;;7.20;;
76729;SDS011;65653;53.106;18.046;2023-07-29T00:51:44;8.00;;;6.40;;
76729;SDS011;65653;53.106;18.046;2023-07-29T00:54:11;9.80;;;7.20;;
76729;SDS011;65653;53.106;18.046;2023-07-29T00:56:39;11.40;;;7.50;;
76729;SDS011;65653;53.106;18.046;2023-07-29T00:59:06;15.90;;;11.30;;
76729;SDS011;65653;53.106;18.046;2023-07-29T01:01:33;10.40;;;7.40;;
76729;SDS011;65653;53.106;18.046;2023-07-29T01:04:00;11.10;;;8.50;;
76729;SDS011;65653;53.106;18.046;2023-07-29T01:06:29;18.70;;;12.90;;
76729;SDS011;65653;53.106;18.046;2023-07-29T01:09:04;16.60;;;11.70;;
76729;SDS011;65653;53.106;18.046;2023-07-29T01:11:42;23.50;;;15.80;;
76729;SDS011;65653;53.106;18.046;2023-07-29T01:14:39;11.60;;;9.20;;
76729;SDS011;65653;53.106;18.046;2023-07-29T01:17:22;11.20;;;8.80;;
76729;SDS011;65653;53.106;18.046;2023-07-29T01:22:26;13.00;;;9.20;;
76729;SDS011;65653;53.106;18.046;2023-07-29T01:24:54;11.60;;;9.00;;
76729;SDS011;65653;53.106;18.046;2023-07-29T01:27:20;11.10;;;8.80;;
76729;SDS011;65653;53.106;18.046;2023-07-29T01:29:47;9.40;;;7.70;;
76729;SDS011;65653;53.106;18.046;2023-07-29T01:32:15;9.80;;;8.10;;
76729;SDS011;65653;53.106;18.046;2023-07-29T01:34:49;15.70;;;11.20;;
76729;SDS011;65653;53.106;18.046;2023-07-29T01:37:27;12.30;;;8.60;;
76729;SDS011;65653;53.106;18.046;2023-07-29T01:39:59;10.40;;;8.10;;
76729;SDS011;65653;53.106;18.046;2023-07-29T01:42:27;10.70;;;8.90;;
76729;SDS011;65653;53.106;18.046;2023-07-29T01:44:54;12.20;;;9.20;;
76729;SDS011;65653;53.106;18.046;2023-07-29T01:47:20;11.10;;;8.30;;
76729;SDS011;65653;53.106;18.046;2023-07-29T01:49:48;13.80;;;9.50;;
76729;SDS011;65653;53.106;18.046;2023-07-29T01:52:15;10.30;;;8.70;;
76729;SDS011;65653;53.106;18.046;2023-07-29T01:54:41;9.90;;;8.70;;
76729;SDS011;65653;53.106;18.046;2023-07-29T01:57:08;12.20;;;9.00;;
76729;SDS011;65653;53.106;18.046;2023-07-29T01:59:34;11.60;;;8.90;;
76729;SDS011;65653;53.106;18.046;2023-07-29T02:02:01;11.70;;;8.80;;
76729;SDS011;65653;53.106;18.046;2023-07-29T02:04:27;9.20;;;7.90;;
76729;SDS011;65653;53.106;18.046;2023-07-29T02:06:54;11.30;;;8.60;;
76729;SDS011;65653;53.106;18.046;2023-07-29T02:09:21;13.90;;;9.30;;
76729;SDS011;65653;53.106;18.046;2023-07-29T02:11:48;17.10;;;10.30;;
76729;SDS011;65653;53.106;18.046;2023-07-29T02:14:14;13.30;;;10.40;;
76729;SDS011;65653;53.106;18.046;2023-07-29T02:16:41;14.40;;;9.20;;
76729;SDS011;65653;53.106;18.046;2023-07-29T02:19:08;11.50;;;9.10;;
76729;SDS011;65653;53.106;18.046;2023-07-29T02:21:34;12.70;;;9.30;;
76729;SDS011;65653;53.106;18.046;2023-07-29T02:24:01;12.30;;;9.60;;
76729;SDS011;65653;53.106;18.046;2023-07-29T02:26:27;14.20;;;9.80;;
76729;SDS011;65653;53.106;18.046;2023-07-29T02:28:54;13.00;;;9.40;;
76729;SDS011;65653;53.106;18.046;2023-07-29T02:31:22;13.00;;;10.10;;
76729;SDS011;65653;53.106;18.046;2023-07-29T02:33:51;13.20;;;9.30;;
76729;SDS011;65653;53.106;18.046;2023-07-29T02:36:18;12.30;;;10.10;;
76729;SDS011;65653;53.106;18.046;2023-07-29T02:38:45;13.30;;;10.70;;
76729;SDS011;65653;53.106;18.046;2023-07-29T02:41:12;18.50;;;13.80;;
76729;SDS011;65653;53.106;18.046;2023-07-29T02:43:39;17.30;;;12.40;;
76729;SDS011;65653;53.106;18.046;2023-07-29T02:46:07;15.30;;;11.10;;
76729;SDS011;65653;53.106;18.046;2023-07-29T02:48:33;12.50;;;9.60;;
76729;SDS011;65653;53.106;18.046;2023-07-29T02:51:00;13.90;;;9.50;;
76729;SDS011;65653;53.106;18.046;2023-07-29T02:53:26;12.00;;;9.20;;
76729;SDS011;65653;53.106;18.046;2023-07-29T02:55:53;12.30;;;8.60;;
76729;SDS011;65653;53.106;18.046;2023-07-29T02:58:20;11.60;;;8.60;;
76729;SDS011;65653;53.106;18.046;2023-07-29T03:00:47;12.40;;;8.60;;
76729;SDS011;65653;53.106;18.046;2023-07-29T03:03:15;12.00;;;8.30;;
76729;SDS011;65653;53.106;18.046;2023-07-29T03:05:42;11.30;;;8.80;;
76729;SDS011;65653;53.106;18.046;2023-07-29T03:08:08;11.50;;;8.80;;
76729;SDS011;65653;53.106;18.046;2023-07-29T03:10:35;12.80;;;9.20;;
76729;SDS011;65653;53.106;18.046;2023-07-29T03:13:02;10.60;;;7.90;;
76729;SDS011;65653;53.106;18.046;2023-07-29T03:15:29;12.20;;;9.40;;
76729;SDS011;65653;53.106;18.046;2023-07-29T03:17:56;12.60;;;9.50;;
76729;SDS011;65653;53.106;18.046;2023-07-29T03:20:23;10.10;;;8.00;;
76729;SDS011;65653;53.106;18.046;2023-07-29T03:22:49;10.20;;;8.30;;
76729;SDS011;65653;53.106;18.046;2023-07-29T03:25:16;9.80;;;8.10;;
76729;SDS011;65653;53.106;18.046;2023-07-29T03:27:43;10.00;;;7.10;;
76729;SDS011;65653;53.106;18.046;2023-07-29T03:30:09;10.40;;;7.90;;
76729;SDS011;65653;53.106;18.046;2023-07-29T03:32:39;11.00;;;8.00;;
76729;SDS011;65653;53.106;18.046;2023-07-29T03:35:11;11.00;;;8.40;;
76729;SDS011;65653;53.106;18.046;2023-07-29T03:37:38;9.80;;;8.00;;
76729;SDS011;65653;53.106;18.046;2023-07-29T03:40:05;10.30;;;7.50;;
76729;SDS011;65653;53.106;18.046;2023-07-29T03:42:32;9.00;;;6.10;;
76729;SDS011;65653;53.106;18.046;2023-07-29T03:44:59;10.30;;;7.90;;
76729;SDS011;65653;53.106;18.046;2023-07-29T03:47:26;12.70;;;8.20;;
76729;SDS011;65653;53.106;18.046;2023-07-29T03:49:53;13.20;;;8.90;;
76729;SDS011;65653;53.106;18.046;2023-07-29T03:52:19;10.40;;;7.80;;
76729;SDS011;65653;53.106;18.046;2023-07-29T03:54:46;11.70;;;8.60;;
76729;SDS011;65653;53.106;18.046;2023-07-29T03:57:13;9.80;;;7.70;;
76729;SDS011;65653;53.106;18.046;2023-07-29T03:59:40;10.10;;;7.70;;
76729;SDS011;65653;53.106;18.046;2023-07-29T04:02:06;10.90;;;7.80;;
76729;SDS011;65653;53.106;18.046;2023-07-29T04:04:33;10.00;;;6.90;;
76729;SDS011;65653;53.106;18.046;2023-07-29T04:07:00;8.90;;;6.30;;
76729;SDS011;65653;53.106;18.046;2023-07-29T04:09:26;6.70;;;5.90;;
76729;SDS011;65653;53.106;18.046;2023-07-29T04:11:52;6.00;;;5.40;;
76729;SDS011;65653;53.106;18.046;2023-07-29T04:14:19;5.80;;;5.20;;
76729;SDS011;65653;53.106;18.046;2023-07-29T04:16:45;6.70;;;5.60;;
76729;SDS011;65653;53.106;18.046;2023-07-29T04:19:12;6.60;;;5.10;;
76729;SDS011;65653;53.106;18.046;2023-07-29T04:21:38;5.10;;;4.50;;
76729;SDS011;65653;53.106;18.046;2023-07-29T04:24:05;4.70;;;3.90;;
76729;SDS011;65653;53.106;18.046;2023-07-29T04:26:32;4.80;;;4.40;;
76729;SDS011;65653;53.106;18.046;2023-07-29T04:28:58;5.50;;;4.60;;
76729;SDS011;65653;53.106;18.046;2023-07-29T04:31:25;6.40;;;4.90;;
76729;SDS011;65653;53.106;18.046;2023-07-29T04:33:51;6.40;;;5.10;;
76729;SDS011;65653;53.106;18.046;2023-07-29T04:36:18;5.80;;;5.10;;
76729;SDS011;65653;53.106;18.046;2023-07-29T04:38:45;5.30;;;4.80;;
76729;SDS011;65653;53.106;18.046;2023-07-29T04:41:12;6.20;;;4.70;;
76729;SDS011;65653;53.106;18.046;2023-07-29T04:43:38;5.80;;;4.80;;
76729;SDS011;65653;53.106;18.046;2023-07-29T04:46:06;5.80;;;5.10;;
76729;SDS011;65653;53.106;18.046;2023-07-29T04:48:34;6.90;;;5.60;;
76729;SDS011;65653;53.106;18.046;2023-07-29T04:51:01;6.80;;;5.30;;
76729;SDS011;65653;53.106;18.046;2023-07-29T04:53:28;8.00;;;6.20;;
76729;SDS011;65653;53.106;18.046;2023-07-29T04:55:54;7.60;;;6.40;;
76729;SDS011;65653;53.106;18.046;2023-07-29T04:58:21;7.50;;;6.30;;
76729;SDS011;65653;53.106;18.046;2023-07-29T05:00:48;8.10;;;6.00;;
76729;SDS011;65653;53.106;18.046;2023-07-29T05:03:15;7.90;;;5.80;;
76729;SDS011;65653;53.106;18.046;2023-07-29T05:05:41;8.10;;;5.80;;
76729;SDS011;65653;53.106;18.046;2023-07-29T05:08:08;7.70;;;5.70;;
76729;SDS011;65653;53.106;18.046;2023-07-29T05:10:34;7.40;;;5.90;;
76729;SDS011;65653;53.106;18.046;2023-07-29T05:13:00;9.60;;;5.90;;
76729;SDS011;65653;53.106;18.046;2023-07-29T05:15:27;6.30;;;5.60;;
76729;SDS011;65653;53.106;18.046;2023-07-29T05:17:55;6.20;;;5.60;;
76729;SDS011;65653;53.106;18.046;2023-07-29T05:20:21;6.40;;;5.40;;
76729;SDS011;65653;53.106;18.046;2023-07-29T05:22:48;8.40;;;6.00;;
76729;SDS011;65653;53.106;18.046;2023-07-29T05:25:15;7.90;;;5.70;;
76729;SDS011;65653;53.106;18.046;2023-07-29T05:27:42;7.80;;;5.70;;
76729;SDS011;65653;53.106;18.046;2023-07-29T05:30:08;6.80;;;5.50;;
76729;SDS011;65653;53.106;18.046;2023-07-29T05:32:35;6.80;;;5.20;;
76729;SDS011;65653;53.106;18.046;2023-07-29T05:35:01;7.40;;;5.50;;
76729;SDS011;65653;53.106;18.046;2023-07-29T05:37:28;6.90;;;5.50;;
76729;SDS011;65653;53.106;18.046;2023-07-29T05:39:55;7.20;;;5.40;;
76729;SDS011;65653;53.106;18.046;2023-07-29T05:42:21;7.20;;;4.50;;
76729;SDS011;65653;53.106;18.046;2023-07-29T05:44:48;5.00;;;4.20;;
76729;SDS011;65653;53.106;18.046;2023-07-29T05:47:14;5.00;;;4.50;;
76729;SDS011;65653;53.106;18.046;2023-07-29T05:49:41;4.80;;;4.10;;
76729;SDS011;65653;53.106;18.046;2023-07-29T05:52:08;4.30;;;3.90;;
76729;SDS011;65653;53.106;18.046;2023-07-29T05:54:35;5.50;;;4.30;;
76729;SDS011;65653;53.106;18.046;2023-07-29T05:57:02;4.10;;;3.40;;
76729;SDS011;65653;53.106;18.046;2023-07-29T05:59:28;4.70;;;3.90;;
76729;SDS011;65653;53.106;18.046;2023-07-29T06:01:55;4.80;;;3.60;;
76729;SDS011;65653;53.106;18.046;2023-07-29T06:04:22;4.60;;;3.60;;
76729;SDS011;65653;53.106;18.046;2023-07-29T06:06:49;3.70;;;3.40;;
76729;SDS011;65653;53.106;18.046;2023-07-29T06:09:16;4.90;;;3.20;;
76729;SDS011;65653;53.106;18.046;2023-07-29T06:11:43;3.00;;;2.70;;
76729;SDS011;65653;53.106;18.046;2023-07-29T06:14:09;3.90;;;2.90;;
76729;SDS011;65653;53.106;18.046;2023-07-29T06:16:36;3.70;;;2.70;;
76729;SDS011;65653;53.106;18.046;2023-07-29T06:19:02;3.00;;;2.70;;
76729;SDS011;65653;53.106;18.046;2023-07-29T06:21:30;4.60;;;2.10;;
76729;SDS011;65653;53.106;18.046;2023-07-29T06:23:57;4.10;;;2.40;;
76729;SDS011;65653;53.106;18.046;2023-07-29T06:26:23;4.30;;;2.70;;
76729;SDS011;65653;53.106;18.046;2023-07-29T06:28:50;3.00;;;2.80;;
76729;SDS011;65653;53.106;18.046;2023-07-29T06:31:17;2.70;;;2.50;;
76729;SDS011;65653;53.106;18.046;2023-07-29T06:33:43;3.40;;;2.60;;
76729;SDS011;65653;53.106;18.046;2023-07-29T06:36:10;3.50;;;2.60;;
76729;SDS011;65653;53.106;18.046;2023-07-29T06:38:37;2.70;;;2.20;;
76729;SDS011;65653;53.106;18.046;2023-07-29T06:41:04;2.60;;;2.40;;
76729;SDS011;65653;53.106;18.046;2023-07-29T06:43:31;2.40;;;2.10;;
76729;SDS011;65653;53.106;18.046;2023-07-29T06:45:58;2.60;;;2.20;;
76729;SDS011;65653;53.106;18.046;2023-07-29T06:48:24;2.30;;;1.90;;
76729;SDS011;65653;53.106;18.046;2023-07-29T06:50:51;5.00;;;2.50;;
76729;SDS011;65653;53.106;18.046;2023-07-29T06:53:18;2.20;;;2.00;;
76729;SDS011;65653;53.106;18.046;2023-07-29T06:55:47;2.10;;;1.90;;
76729;SDS011;65653;53.106;18.046;2023-07-29T06:58:14;2.30;;;2.10;;
76729;SDS011;65653;53.106;18.046;2023-07-29T07:00:40;1.70;;;1.60;;
76729;SDS011;65653;53.106;18.046;2023-07-29T07:03:07;3.90;;;2.40;;
76729;SDS011;65653;53.106;18.046;2023-07-29T07:05:34;2.10;;;1.90;;
76729;SDS011;65653;53.106;18.046;2023-07-29T07:08:00;1.50;;;1.40;;
76729;SDS011;65653;53.106;18.046;2023-07-29T07:10:27;2.20;;;1.90;;
76729;SDS011;65653;53.106;18.046;2023-07-29T07:12:54;2.00;;;1.60;;
76729;SDS011;65653;53.106;18.046;2023-07-29T07:15:20;2.00;;;1.70;;
76729;SDS011;65653;53.106;18.046;2023-07-29T07:17:48;3.30;;;1.80;;
76729;SDS011;65653;53.106;18.046;2023-07-29T07:20:14;1.70;;;1.60;;
76729;SDS011;65653;53.106;18.046;2023-07-29T07:22:41;1.60;;;1.50;;
76729;SDS011;65653;53.106;18.046;2023-07-29T07:25:08;1.30;;;1.20;;
76729;SDS011;65653;53.106;18.046;2023-07-29T07:27:34;1.80;;;1.50;;
76729;SDS011;65653;53.106;18.046;2023-07-29T07:30:01;2.00;;;1.40;;
76729;SDS011;65653;53.106;18.046;2023-07-29T07:32:29;1.90;;;1.30;;
76729;SDS011;65653;53.106;18.046;2023-07-29T07:34:55;1.30;;;1.20;;
76729;SDS011;65653;53.106;18.046;2023-07-29T07:37:22;1.60;;;1.50;;
76729;SDS011;65653;53.106;18.046;2023-07-29T07:39:50;4.50;;;1.70;;
76729;SDS011;65653;53.106;18.046;2023-07-29T07:42:16;1.60;;;1.50;;
76729;SDS011;65653;53.106;18.046;2023-07-29T07:44:43;1.40;;;1.30;;
76729;SDS011;65653;53.106;18.046;2023-07-29T07:47:12;1.80;;;1.40;;
76729;SDS011;65653;53.106;18.046;2023-07-29T07:49:39;2.50;;;2.10;;
76729;SDS011;65653;53.106;18.046;2023-07-29T07:52:05;1.70;;;1.40;;
76729;SDS011;65653;53.106;18.046;2023-07-29T07:54:32;1.70;;;1.60;;
76729;SDS011;65653;53.106;18.046;2023-07-29T07:56:59;1.60;;;1.30;;
76729;SDS011;65653;53.106;18.046;2023-07-29T07:59:26;1.70;;;1.50;;
76729;SDS011;65653;53.106;18.046;2023-07-29T08:01:52;2.00;;;1.60;;
76729;SDS011;65653;53.106;18.046;2023-07-29T08:04:20;1.40;;;1.30;;
76729;SDS011;65653;53.106;18.046;2023-07-29T08:06:46;1.40;;;1.30;;
76729;SDS011;65653;53.106;18.046;2023-07-29T08:09:13;2.20;;;1.40;;
76729;SDS011;65653;53.106;18.046;2023-07-29T08:11:41;1.30;;;1.20;;
76729;SDS011;65653;53.106;18.046;2023-07-29T08:14:07;3.10;;;1.10;;
76729;SDS011;65653;53.106;18.046;2023-07-29T08:16:34;1.20;;;1.00;;
76729;SDS011;65653;53.106;18.046;2023-07-29T08:19:00;1.60;;;1.50;;
76729;SDS011;65653;53.106;18.046;2023-07-29T08:21:27;1.20;;;1.10;;
76729;SDS011;65653;53.106;18.046;2023-07-29T08:23:53;1.20;;;1.10;;
76729;SDS011;65653;53.106;18.046;2023-07-29T08:26:20;1.60;;;1.00;;
76729;SDS011;65653;53.106;18.046;2023-07-29T08:28:48;2.30;;;1.30;;
76729;SDS011;65653;53.106;18.046;2023-07-29T08:31:14;1.30;;;1.10;;
76729;SDS011;65653;53.106;18.046;2023-07-29T08:33:41;1.90;;;1.40;;
76729;SDS011;65653;53.106;18.046;2023-07-29T08:36:08;2.60;;;1.30;;
76729;SDS011;65653;53.106;18.046;2023-07-29T08:38:34;1.40;;;1.30;;
76729;SDS011;65653;53.106;18.046;2023-07-29T08:41:06;1.40;;;1.00;;
76729;SDS011;65653;53.106;18.046;2023-07-29T08:43:43;1.60;;;1.20;;
76729;SDS011;65653;53.106;18.046;2023-07-29T08:46:22;1.40;;;1.10;;
76729;SDS011;65653;53.106;18.046;2023-07-29T08:48:49;1.70;;;1.50;;
76729;SDS011;65653;53.106;18.046;2023-07-29T08:51:16;1.70;;;1.10;;
76729;SDS011;65653;53.106;18.046;2023-07-29T08:53:46;2.00;;;1.50;;
76729;SDS011;65653;53.106;18.046;2023-07-29T08:56:13;1.30;;;0.90;;
76729;SDS011;65653;53.106;18.046;2023-07-29T08:58:41;1.10;;;1.00;;
76729;SDS011;65653;53.106;18.046;2023-07-29T09:01:09;1.90;;;0.80;;
76729;SDS011;65653;53.106;18.046;2023-07-29T09:03:36;0.70;;;0.70;;
76729;SDS011;65653;53.106;18.046;2023-07-29T09:06:03;1.50;;;1.20;;
76729;SDS011;65653;53.106;18.046;2023-07-29T09:08:30;1.30;;;1.10;;
76729;SDS011;65653;53.106;18.046;2023-07-29T09:10:56;1.80;;;1.00;;
76729;SDS011;65653;53.106;18.046;2023-07-29T09:13:24;1.30;;;1.00;;
76729;SDS011;65653;53.106;18.046;2023-07-29T09:15:55;1.10;;;0.90;;
76729;SDS011;65653;53.106;18.046;2023-07-29T09:18:25;1.20;;;1.00;;
76729;SDS011;65653;53.106;18.046;2023-07-29T09:20:53;1.10;;;1.00;;
76729;SDS011;65653;53.106;18.046;2023-07-29T09:23:25;1.30;;;1.10;;
76729;SDS011;65653;53.106;18.046;2023-07-29T09:25:52;1.10;;;0.90;;
76729;SDS011;65653;53.106;18.046;2023-07-29T09:28:33;1.70;;;1.20;;
76729;SDS011;65653;53.106;18.046;2023-07-29T09:31:04;1.50;;;1.20;;
76729;SDS011;65653;53.106;18.046;2023-07-29T09:33:34;1.20;;;1.00;;
76729;SDS011;65653;53.106;18.046;2023-07-29T09:36:09;0.80;;;0.80;;
76729;SDS011;65653;53.106;18.046;2023-07-29T09:38:36;3.00;;;1.00;;
76729;SDS011;65653;53.106;18.046;2023-07-29T09:41:06;2.40;;;2.30;;
76729;SDS011;65653;53.106;18.046;2023-07-29T09:43:33;1.40;;;1.30;;
76729;SDS011;65653;53.106;18.046;2023-07-29T09:46:05;2.50;;;2.00;;
76729;SDS011;65653;53.106;18.046;2023-07-29T09:52:03;0.70;;;0.70;;
76729;SDS011;65653;53.106;18.046;2023-07-29T09:54:32;1.10;;;0.70;;
76729;SDS011;65653;53.106;18.046;2023-07-29T09:56:59;2.10;;;1.00;;
76729;SDS011;65653;53.106;18.046;2023-07-29T09:59:33;1.30;;;0.70;;
76729;SDS011;65653;53.106;18.046;2023-07-29T10:02:00;0.60;;;0.60;;
76729;SDS011;65653;53.106;18.046;2023-07-29T10:08:13;1.90;;;1.80;;
76729;SDS011;65653;53.106;18.046;2023-07-29T10:13:59;1.10;;;1.00;;
76729;SDS011;65653;53.106;18.046;2023-07-29T10:16:27;2.10;;;0.70;;
76729;SDS011;65653;53.106;18.046;2023-07-29T10:18:54;1.60;;;1.20;;
76729;SDS011;65653;53.106;18.046;2023-07-29T10:21:23;0.60;;;0.60;;
76729;SDS011;65653;53.106;18.046;2023-07-29T10:23:49;1.80;;;1.70;;
76729;SDS011;65653;53.106;18.046;2023-07-29T10:26:19;0.90;;;0.60;;
76729;SDS011;65653;53.106;18.046;2023-07-29T10:28:51;0.70;;;0.70;;
76729;SDS011;65653;53.106;18.046;2023-07-29T10:31:20;0.50;;;0.50;;
76729;SDS011;65653;53.106;18.046;2023-07-29T10:33:49;0.90;;;0.90;;
76729;SDS011;65653;53.106;18.046;2023-07-29T10:36:17;1.70;;;0.60;;
76729;SDS011;65653;53.106;18.046;2023-07-29T10:38:44;1.10;;;0.60;;
76729;SDS011;65653;53.106;18.046;2023-07-29T10:41:11;0.70;;;0.70;;
76729;SDS011;65653;53.106;18.046;2023-07-29T10:43:37;0.90;;;0.70;;
76729;SDS011;65653;53.106;18.046;2023-07-29T10:49:01;0.60;;;0.60;;
76729;SDS011;65653;53.106;18.046;2023-07-29T10:54:00;0.70;;;0.70;;
76729;SDS011;65653;53.106;18.046;2023-07-29T10:56:32;0.80;;;0.50;;
76729;SDS011;65653;53.106;18.046;2023-07-29T11:01:40;1.90;;;0.60;;
76729;SDS011;65653;53.106;18.046;2023-07-29T11:09:51;2.00;;;1.00;;
76729;SDS011;65653;53.106;18.046;2023-07-29T11:12:39;1.70;;;0.70;;
76729;SDS011;65653;53.106;18.046;2023-07-29T11:17:54;1.20;;;0.70;;
76729;SDS011;65653;53.106;18.046;2023-07-29T11:20:31;1.10;;;0.70;;
76729;SDS011;65653;53.106;18.046;2023-07-29T11:23:00;0.60;;;0.60;;
76729;SDS011;65653;53.106;18.046;2023-07-29T11:25:29;0.70;;;0.50;;
76729;SDS011;65653;53.106;18.046;2023-07-29T11:27:57;0.50;;;0.50;;
76729;SDS011;65653;53.106;18.046;2023-07-29T11:30:25;0.80;;;0.70;;
76729;SDS011;65653;53.106;18.046;2023-07-29T11:32:53;0.50;;;0.50;;
76729;SDS011;65653;53.106;18.046;2023-07-29T11:35:22;0.70;;;0.70;;
76729;SDS011;65653;53.106;18.046;2023-07-29T11:37:49;0.70;;;0.70;;
76729;SDS011;65653;53.106;18.046;2023-07-29T11:40:18;0.60;;;0.60;;
76729;SDS011;65653;53.106;18.046;2023-07-29T11:42:47;2.00;;;0.60;;
76729;SDS011;65653;53.106;18.046;2023-07-29T11:45:19;2.20;;;0.70;;
76729;SDS011;65653;53.106;18.046;2023-07-29T11:47:47;1.20;;;0.60;;
76729;SDS011;65653;53.106;18.046;2023-07-29T11:50:14;0.70;;;0.70;;
76729;SDS011;65653;53.106;18.046;2023-07-29T11:52:42;0.50;;;0.50;;
76729;SDS011;65653;53.106;18.046;2023-07-29T11:55:11;0.90;;;0.90;;
76729;SDS011;65653;53.106;18.046;2023-07-29T11:57:39;0.60;;;0.60;;
76729;SDS011;65653;53.106;18.046;2023-07-29T12:00:08;1.00;;;0.50;;
76729;SDS011;65653;53.106;18.046;2023-07-29T12:02:36;1.40;;;0.50;;
76729;SDS011;65653;53.106;18.046;2023-07-29T12:05:05;0.70;;;0.60;;
76729;SDS011;65653;53.106;18.046;2023-07-29T12:07:33;0.70;;;0.70;;
76729;SDS011;65653;53.106;18.046;2023-07-29T12:09:59;2.70;;;0.50;;
76729;SDS011;65653;53.106;18.046;2023-07-29T12:12:26;1.00;;;0.80;;
76729;SDS011;65653;53.106;18.046;2023-07-29T12:14:53;0.70;;;0.70;;
76729;SDS011;65653;53.106;18.046;2023-07-29T12:17:21;0.70;;;0.40;;
76729;SDS011;65653;53.106;18.046;2023-07-29T12:19:47;0.70;;;0.60;;
76729;SDS011;65653;53.106;18.046;2023-07-29T12:22:17;1.00;;;0.80;;
76729;SDS011;65653;53.106;18.046;2023-07-29T12:24:45;1.00;;;0.70;;
76729;SDS011;65653;53.106;18.046;2023-07-29T12:27:12;2.50;;;0.60;;
76729;SDS011;65653;53.106;18.046;2023-07-29T12:29:43;0.80;;;0.80;;
76729;SDS011;65653;53.106;18.046;2023-07-29T12:32:10;0.60;;;0.60;;
76729;SDS011;65653;53.106;18.046;2023-07-29T12:34:37;0.70;;;0.70;;
76729;SDS011;65653;53.106;18.046;2023-07-29T12:37:07;1.60;;;1.50;;
76729;SDS011;65653;53.106;18.046;2023-07-29T12:39:35;1.20;;;0.90;;
76729;SDS011;65653;53.106;18.046;2023-07-29T12:42:10;1.60;;;0.80;;
76729;SDS011;65653;53.106;18.046;2023-07-29T12:44:37;0.90;;;0.90;;
76729;SDS011;65653;53.106;18.046;2023-07-29T12:47:05;1.50;;;0.90;;
76729;SDS011;65653;53.106;18.046;2023-07-29T12:49:32;1.20;;;0.60;;
76729;SDS011;65653;53.106;18.046;2023-07-29T12:51:59;0.60;;;0.60;;
76729;SDS011;65653;53.106;18.046;2023-07-29T12:54:26;0.60;;;0.60;;
76729;SDS011;65653;53.106;18.046;2023-07-29T12:56:53;1.50;;;0.80;;
76729;SDS011;65653;53.106;18.046;2023-07-29T12:59:19;0.90;;;0.90;;
76729;SDS011;65653;53.106;18.046;2023-07-29T13:01:45;2.20;;;1.00;;
76729;SDS011;65653;53.106;18.046;2023-07-29T13:04:12;1.30;;;1.00;;
76729;SDS011;65653;53.106;18.046;2023-07-29T13:06:39;1.90;;;1.00;;
76729;SDS011;65653;53.106;18.046;2023-07-29T13:09:05;0.90;;;0.90;;
76729;SDS011;65653;53.106;18.046;2023-07-29T13:11:32;0.80;;;0.80;;
76729;SDS011;65653;53.106;18.046;2023-07-29T13:13:59;0.90;;;0.90;;
76729;SDS011;65653;53.106;18.046;2023-07-29T13:16:27;1.10;;;0.70;;
76729;SDS011;65653;53.106;18.046;2023-07-29T13:18:55;1.70;;;1.00;;
76729;SDS011;65653;53.106;18.046;2023-07-29T13:21:22;1.60;;;0.90;;
76729;SDS011;65653;53.106;18.046;2023-07-29T13:23:50;1.00;;;0.90;;
76729;SDS011;65653;53.106;18.046;2023-07-29T13:26:23;0.90;;;0.90;;
76729;SDS011;65653;53.106;18.046;2023-07-29T13:28:53;0.90;;;0.90;;
76729;SDS011;65653;53.106;18.046;2023-07-29T13:31:21;1.50;;;0.90;;
76729;SDS011;65653;53.106;18.046;2023-07-29T13:33:47;0.90;;;0.90;;
76729;SDS011;65653;53.106;18.046;2023-07-29T13:36:14;2.40;;;0.90;;
76729;SDS011;65653;53.106;18.046;2023-07-29T13:38:44;1.10;;;1.00;;
76729;SDS011;65653;53.106;18.046;2023-07-29T13:41:10;1.00;;;1.00;;
76729;SDS011;65653;53.106;18.046;2023-07-29T13:43:37;0.80;;;0.80;;
76729;SDS011;65653;53.106;18.046;2023-07-29T13:46:04;1.00;;;1.00;;
76729;SDS011;65653;53.106;18.046;2023-07-29T13:48:31;1.20;;;0.70;;
76729;SDS011;65653;53.106;18.046;2023-07-29T13:50:59;1.70;;;0.90;;
76729;SDS011;65653;53.106;18.046;2023-07-29T13:53:26;2.30;;;1.00;;
76729;SDS011;65653;53.106;18.046;2023-07-29T13:55:53;4.90;;;0.70;;
76729;SDS011;65653;53.106;18.046;2023-07-29T13:58:19;0.90;;;0.90;;
76729;SDS011;65653;53.106;18.046;2023-07-29T14:00:49;1.20;;;1.10;;
76729;SDS011;65653;53.106;18.046;2023-07-29T14:03:16;0.90;;;0.90;;
76729;SDS011;65653;53.106;18.046;2023-07-29T14:05:43;0.80;;;0.80;;
76729;SDS011;65653;53.106;18.046;2023-07-29T14:08:09;1.00;;;0.90;;
76729;SDS011;65653;53.106;18.046;2023-07-29T14:10:36;1.60;;;0.80;;
76729;SDS011;65653;53.106;18.046;2023-07-29T14:13:02;0.70;;;0.70;;
76729;SDS011;65653;53.106;18.046;2023-07-29T14:15:29;0.90;;;0.90;;
76729;SDS011;65653;53.106;18.046;2023-07-29T14:17:55;1.00;;;0.90;;
76729;SDS011;65653;53.106;18.046;2023-07-29T14:20:22;0.90;;;0.90;;
76729;SDS011;65653;53.106;18.046;2023-07-29T14:22:48;1.50;;;1.00;;
76729;SDS011;65653;53.106;18.046;2023-07-29T14:25:15;0.70;;;0.70;;
76729;SDS011;65653;53.106;18.046;2023-07-29T14:27:42;0.90;;;0.90;;
76729;SDS011;65653;53.106;18.046;2023-07-29T14:30:08;1.20;;;1.10;;
76729;SDS011;65653;53.106;18.046;2023-07-29T14:32:35;0.80;;;0.80;;
76729;SDS011;65653;53.106;18.046;2023-07-29T14:35:03;4.30;;;1.10;;
76729;SDS011;65653;53.106;18.046;2023-07-29T14:37:30;0.90;;;0.90;;
76729;SDS011;65653;53.106;18.046;2023-07-29T14:39:58;1.80;;;1.10;;
76729;SDS011;65653;53.106;18.046;2023-07-29T14:42:25;2.40;;;1.10;;
76729;SDS011;65653;53.106;18.046;2023-07-29T14:44:52;2.00;;;1.10;;
76729;SDS011;65653;53.106;18.046;2023-07-29T14:47:20;2.40;;;1.40;;
76729;SDS011;65653;53.106;18.046;2023-07-29T14:49:46;1.30;;;1.20;;
76729;SDS011;65653;53.106;18.046;2023-07-29T14:52:13;1.40;;;1.30;;
76729;SDS011;65653;53.106;18.046;2023-07-29T14:54:39;3.90;;;1.40;;
76729;SDS011;65653;53.106;18.046;2023-07-29T14:57:06;2.30;;;1.10;;
76729;SDS011;65653;53.106;18.046;2023-07-29T14:59:33;2.30;;;1.20;;
76729;SDS011;65653;53.106;18.046;2023-07-29T15:01:59;1.30;;;1.20;;
76729;SDS011;65653;53.106;18.046;2023-07-29T15:04:26;2.70;;;1.10;;